sensor_id;sensor_type;location;lat;lon;timestamp;pressure;altitude;pressure_sealevel;temperature;humidity
20628;BME280;10473;42.734;24.258;2022-11-13T00:00:00;93254.06;;;9.97;71.40
20628;BME280;10473;42.734;24.258;2022-11-13T00:02:47;93256.56;;;9.81;72.25
20628;BME280;10473;42.734;24.258;2022-11-13T00:05:33;93257.31;;;9.82;72.42
20628;BME280;10473;42.734;24.258;2022-11-13T00:08:21;93252.94;;;9.86;72.54
20628;BME280;10473;42.734;24.258;2022-11-13T00:11:10;93259.34;;;9.97;72.16
20628;BME280;10473;42.734;24.258;2022-11-13T00:13:56;93228.41;;;9.65;72.57
20628;BME280;10473;42.734;24.258;2022-11-13T00:16:42;93250.38;;;9.77;73.13
20628;BME280;10473;42.734;24.258;2022-11-13T00:19:29;93254.25;;;9.80;72.63
20628;BME280;10473;42.734;24.258;2022-11-13T00:22:15;93230.16;;;9.61;73.02
20628;BME280;10473;42.734;24.258;2022-11-13T00:25:03;93246.47;;;9.63;73.34
20628;BME280;10473;42.734;24.258;2022-11-13T00:27:50;93249.69;;;9.48;73.36
20628;BME280;10473;42.734;24.258;2022-11-13T00:30:36;93253.88;;;9.69;73.04
20628;BME280;10473;42.734;24.258;2022-11-13T00:33:23;93249.50;;;9.53;73.37
20628;BME280;10473;42.734;24.258;2022-11-13T00:36:13;93257.63;;;9.48;73.95
20628;BME280;10473;42.734;24.258;2022-11-13T00:39:00;93252.13;;;9.41;73.54
20628;BME280;10473;42.734;24.258;2022-11-13T00:41:48;93252.22;;;9.44;73.33
20628;BME280;10473;42.734;24.258;2022-11-13T00:44:34;93256.50;;;9.37;74.25
20628;BME280;10473;42.734;24.258;2022-11-13T00:47:20;93259.16;;;9.37;73.65
20628;BME280;10473;42.734;24.258;2022-11-13T00:50:07;93251.47;;;9.44;74.03
20628;BME280;10473;42.734;24.258;2022-11-13T00:52:54;93255.53;;;9.41;74.36
20628;BME280;10473;42.734;24.258;2022-11-13T00:55:41;93254.31;;;9.39;74.06
20628;BME280;10473;42.734;24.258;2022-11-13T00:58:29;93234.81;;;9.23;74.31
20628;BME280;10473;42.734;24.258;2022-11-13T01:01:16;93246.81;;;9.41;74.02
20628;BME280;10473;42.734;24.258;2022-11-13T01:04:03;93243.97;;;9.46;73.43
20628;BME280;10473;42.734;24.258;2022-11-13T01:06:49;93226.38;;;9.50;73.58
20628;BME280;10473;42.734;24.258;2022-11-13T01:09:39;93236.75;;;9.55;73.70
20628;BME280;10473;42.734;24.258;2022-11-13T01:12:25;93242.66;;;9.72;73.04
20628;BME280;10473;42.734;24.258;2022-11-13T01:15:13;93225.75;;;9.65;72.20
20628;BME280;10473;42.734;24.258;2022-11-13T01:17:59;93237.88;;;9.66;72.44
20628;BME280;10473;42.734;24.258;2022-11-13T01:20:45;93239.69;;;9.74;72.05
20628;BME280;10473;42.734;24.258;2022-11-13T01:23:32;93220.88;;;9.55;72.30
20628;BME280;10473;42.734;24.258;2022-11-13T01:26:21;93226.41;;;9.62;72.70
20628;BME280;10473;42.734;24.258;2022-11-13T01:29:09;93234.00;;;9.63;72.18
20628;BME280;10473;42.734;24.258;2022-11-13T01:31:57;93237.88;;;9.66;72.45
20628;BME280;10473;42.734;24.258;2022-11-13T01:34:43;93239.28;;;9.51;72.34
20628;BME280;10473;42.734;24.258;2022-11-13T01:37:30;93233.19;;;9.51;72.66
20628;BME280;10473;42.734;24.258;2022-11-13T01:40:16;93235.34;;;9.37;73.10
20628;BME280;10473;42.734;24.258;2022-11-13T01:43:22;93229.28;;;9.36;73.58
20628;BME280;10473;42.734;24.258;2022-11-13T01:46:15;93228.38;;;9.32;73.67
20628;BME280;10473;42.734;24.258;2022-11-13T01:49:24;93225.81;;;9.24;74.09
20628;BME280;10473;42.734;24.258;2022-11-13T01:52:14;93224.78;;;9.16;74.58
20628;BME280;10473;42.734;24.258;2022-11-13T01:55:03;93208.53;;;9.06;74.15
20628;BME280;10473;42.734;24.258;2022-11-13T01:57:50;93225.69;;;9.00;74.22
20628;BME280;10473;42.734;24.258;2022-11-13T02:00:36;93201.91;;;9.00;74.47
20628;BME280;10473;42.734;24.258;2022-11-13T02:03:23;93196.03;;;8.94;74.88
20628;BME280;10473;42.734;24.258;2022-11-13T02:06:12;93208.09;;;9.04;74.93
20628;BME280;10473;42.734;24.258;2022-11-13T02:08:58;93203.69;;;9.08;74.68
20628;BME280;10473;42.734;24.258;2022-11-13T02:11:45;93200.00;;;9.21;74.48
20628;BME280;10473;42.734;24.258;2022-11-13T02:14:32;93222.03;;;9.45;74.39
20628;BME280;10473;42.734;24.258;2022-11-13T02:17:22;93188.53;;;9.17;74.15
20628;BME280;10473;42.734;24.258;2022-11-13T02:20:13;93188.59;;;9.29;73.40
20628;BME280;10473;42.734;24.258;2022-11-13T02:23:07;93224.63;;;9.33;73.68
20628;BME280;10473;42.734;24.258;2022-11-13T02:25:58;93210.78;;;9.36;73.50
20628;BME280;10473;42.734;24.258;2022-11-13T02:28:44;93216.78;;;9.25;73.78
20628;BME280;10473;42.734;24.258;2022-11-13T02:31:31;93217.50;;;9.13;74.12
20628;BME280;10473;42.734;24.258;2022-11-13T02:34:18;93220.38;;;9.20;74.09
20628;BME280;10473;42.734;24.258;2022-11-13T02:37:04;93216.78;;;9.04;74.35
20628;BME280;10473;42.734;24.258;2022-11-13T02:39:50;93214.22;;;8.96;74.65
20628;BME280;10473;42.734;24.258;2022-11-13T02:42:38;93221.69;;;8.94;74.96
20628;BME280;10473;42.734;24.258;2022-11-13T02:45:25;93219.50;;;8.96;74.18
20628;BME280;10473;42.734;24.258;2022-11-13T02:48:11;93212.28;;;8.84;75.17
20628;BME280;10473;42.734;24.258;2022-11-13T02:50:58;93213.81;;;8.85;74.98
20628;BME280;10473;42.734;24.258;2022-11-13T02:53:44;93208.94;;;8.96;74.52
20628;BME280;10473;42.734;24.258;2022-11-13T02:56:30;93217.69;;;8.88;74.50
20628;BME280;10473;42.734;24.258;2022-11-13T02:59:18;93211.84;;;8.82;73.84
20628;BME280;10473;42.734;24.258;2022-11-13T03:02:04;93224.78;;;8.96;73.97
20628;BME280;10473;42.734;24.258;2022-11-13T03:04:51;93218.88;;;8.99;73.67
20628;BME280;10473;42.734;24.258;2022-11-13T03:07:37;93223.06;;;9.00;74.09
20628;BME280;10473;42.734;24.258;2022-11-13T03:10:23;93211.38;;;9.01;73.61
20628;BME280;10473;42.734;24.258;2022-11-13T03:13:10;93207.72;;;8.93;74.20
20628;BME280;10473;42.734;24.258;2022-11-13T03:16:05;93208.41;;;9.02;73.47
20628;BME280;10473;42.734;24.258;2022-11-13T03:18:51;93225.44;;;9.13;73.51
20628;BME280;10473;42.734;24.258;2022-11-13T03:21:37;93212.00;;;8.98;73.69
20628;BME280;10473;42.734;24.258;2022-11-13T03:24:24;93221.16;;;9.21;74.54
20628;BME280;10473;42.734;24.258;2022-11-13T03:27:10;93225.81;;;9.24;73.92
20628;BME280;10473;42.734;24.258;2022-11-13T03:29:56;93224.31;;;9.35;73.56
20628;BME280;10473;42.734;24.258;2022-11-13T03:32:44;93213.00;;;9.14;73.67
20628;BME280;10473;42.734;24.258;2022-11-13T03:35:30;93225.81;;;9.24;73.71
20628;BME280;10473;42.734;24.258;2022-11-13T03:38:16;93195.91;;;8.91;73.28
20628;BME280;10473;42.734;24.258;2022-11-13T03:41:03;93227.09;;;9.18;73.94
20628;BME280;10473;42.734;24.258;2022-11-13T03:43:49;93219.47;;;9.37;73.61
20628;BME280;10473;42.734;24.258;2022-11-13T03:46:36;93210.00;;;9.36;73.79
20628;BME280;10473;42.734;24.258;2022-11-13T03:49:23;93213.78;;;9.47;73.10
20628;BME280;10473;42.734;24.258;2022-11-13T03:52:10;93218.31;;;9.46;73.20
20628;BME280;10473;42.734;24.258;2022-11-13T03:54:56;93214.78;;;9.54;73.00
20628;BME280;10473;42.734;24.258;2022-11-13T03:57:43;93213.03;;;9.58;72.99
20628;BME280;10473;42.734;24.258;2022-11-13T04:00:29;93216.22;;;9.52;72.82
20628;BME280;10473;42.734;24.258;2022-11-13T04:03:15;93209.56;;;9.34;73.77
20628;BME280;10473;42.734;24.258;2022-11-13T04:06:03;93185.69;;;9.22;73.70
20628;BME280;10473;42.734;24.258;2022-11-13T04:08:50;93210.44;;;9.38;74.14
20628;BME280;10473;42.734;24.258;2022-11-13T04:11:36;93210.72;;;9.24;74.39
20628;BME280;10473;42.734;24.258;2022-11-13T04:14:22;93203.75;;;9.20;74.32
20628;BME280;10473;42.734;24.258;2022-11-13T04:17:09;93213.94;;;9.09;75.14
20628;BME280;10473;42.734;24.258;2022-11-13T04:19:55;93198.22;;;9.13;74.61
20628;BME280;10473;42.734;24.258;2022-11-13T04:22:43;93212.63;;;9.36;74.20
20628;BME280;10473;42.734;24.258;2022-11-13T04:25:29;93212.41;;;9.29;73.98
20628;BME280;10473;42.734;24.258;2022-11-13T04:28:15;93218.72;;;9.16;74.93
20628;BME280;10473;42.734;24.258;2022-11-13T04:31:02;93212.91;;;9.22;74.98
20628;BME280;10473;42.734;24.258;2022-11-13T04:33:48;93193.91;;;9.08;75.00
20628;BME280;10473;42.734;24.258;2022-11-13T04:36:34;93209.50;;;9.22;74.54
20628;BME280;10473;42.734;24.258;2022-11-13T04:39:23;93211.50;;;9.25;73.98
20628;BME280;10473;42.734;24.258;2022-11-13T04:42:10;93211.69;;;9.20;73.94
20628;BME280;10473;42.734;24.258;2022-11-13T04:45:15;93210.56;;;9.09;73.61
20628;BME280;10473;42.734;24.258;2022-11-13T04:48:02;93203.44;;;9.01;74.32
20628;BME280;10473;42.734;24.258;2022-11-13T04:50:49;93206.19;;;8.84;74.93
20628;BME280;10473;42.734;24.258;2022-11-13T04:53:35;93210.22;;;8.90;74.83
20628;BME280;10473;42.734;24.258;2022-11-13T04:56:23;93217.06;;;8.91;75.02
20628;BME280;10473;42.734;24.258;2022-11-13T04:59:09;93210.66;;;8.92;74.71
20628;BME280;10473;42.734;24.258;2022-11-13T05:01:56;93193.69;;;8.93;74.44
20628;BME280;10473;42.734;24.258;2022-11-13T05:04:42;93200.94;;;9.04;73.52
20628;BME280;10473;42.734;24.258;2022-11-13T05:07:28;93208.28;;;8.99;73.97
20628;BME280;10473;42.734;24.258;2022-11-13T05:10:15;93206.72;;;8.98;73.58
20628;BME280;10473;42.734;24.258;2022-11-13T05:13:03;93211.38;;;9.01;73.87
20628;BME280;10473;42.734;24.258;2022-11-13T05:15:49;93196.50;;;8.96;73.29
20628;BME280;10473;42.734;24.258;2022-11-13T05:18:36;93196.00;;;8.74;74.02
20628;BME280;10473;42.734;24.258;2022-11-13T05:21:24;93211.38;;;8.80;74.36
20628;BME280;10473;42.734;24.258;2022-11-13T05:24:11;93209.50;;;8.81;74.19
20628;BME280;10473;42.734;24.258;2022-11-13T05:26:57;93205.03;;;8.73;74.15
20628;BME280;10473;42.734;24.258;2022-11-13T05:29:45;93212.59;;;8.83;73.48
20628;BME280;10473;42.734;24.258;2022-11-13T05:32:31;93224.44;;;8.77;73.67
20628;BME280;10473;42.734;24.258;2022-11-13T05:35:17;93225.59;;;8.88;72.94
20628;BME280;10473;42.734;24.258;2022-11-13T05:38:04;93205.81;;;8.73;72.76
20628;BME280;10473;42.734;24.258;2022-11-13T05:40:50;93226.00;;;8.78;72.57
20628;BME280;10473;42.734;24.258;2022-11-13T05:43:37;93235.47;;;8.79;72.19
20628;BME280;10473;42.734;24.258;2022-11-13T05:46:26;93234.59;;;8.66;73.23
20628;BME280;10473;42.734;24.258;2022-11-13T05:49:13;93247.78;;;8.75;72.87
20628;BME280;10473;42.734;24.258;2022-11-13T05:51:59;93238.66;;;8.64;72.68
20628;BME280;10473;42.734;24.258;2022-11-13T05:54:45;93251.06;;;8.72;72.79
20628;BME280;10473;42.734;24.258;2022-11-13T05:57:32;93237.97;;;8.55;72.57
20628;BME280;10473;42.734;24.258;2022-11-13T06:00:18;93214.69;;;8.48;72.68
20628;BME280;10473;42.734;24.258;2022-11-13T06:03:06;93237.91;;;8.63;71.95
20628;BME280;10473;42.734;24.258;2022-11-13T06:05:52;93259.16;;;8.67;72.35
20628;BME280;10473;42.734;24.258;2022-11-13T06:08:39;93256.41;;;8.84;71.85
20628;BME280;10473;42.734;24.258;2022-11-13T06:11:27;93245.09;;;8.83;71.59
20628;BME280;10473;42.734;24.258;2022-11-13T06:14:13;93265.41;;;9.32;72.55
20628;BME280;10473;42.734;24.258;2022-11-13T06:17:00;93257.31;;;9.82;72.99
20628;BME280;10473;42.734;24.258;2022-11-13T06:19:48;93239.03;;;10.21;70.71
20628;BME280;10473;42.734;24.258;2022-11-13T06:22:34;93258.13;;;10.99;68.54
20628;BME280;10473;42.734;24.258;2022-11-13T06:25:20;93249.47;;;11.65;65.49
20628;BME280;10473;42.734;24.258;2022-11-13T06:28:06;93260.50;;;11.95;62.07
20628;BME280;10473;42.734;24.258;2022-11-13T06:30:52;93255.41;;;12.48;61.41
20628;BME280;10473;42.734;24.258;2022-11-13T06:33:39;93256.69;;;13.01;59.65
20628;BME280;10473;42.734;24.258;2022-11-13T06:36:28;93257.63;;;13.62;59.30
20628;BME280;10473;42.734;24.258;2022-11-13T06:39:15;93259.84;;;14.17;56.24
20628;BME280;10473;42.734;24.258;2022-11-13T06:42:01;93253.25;;;14.52;54.00
20628;BME280;10473;42.734;24.258;2022-11-13T06:44:47;93259.84;;;14.81;54.02
20628;BME280;10473;42.734;24.258;2022-11-13T06:47:34;93264.66;;;14.98;53.26
20628;BME280;10473;42.734;24.258;2022-11-13T06:50:21;93262.41;;;15.26;51.73
20628;BME280;10473;42.734;24.258;2022-11-13T06:53:08;93253.75;;;15.32;51.76
20628;BME280;10473;42.734;24.258;2022-11-13T06:55:55;93248.53;;;15.69;51.90
20628;BME280;10473;42.734;24.258;2022-11-13T06:58:42;93248.69;;;16.16;50.04
20628;BME280;10473;42.734;24.258;2022-11-13T07:01:30;93255.13;;;16.88;49.29
20628;BME280;10473;42.734;24.258;2022-11-13T07:04:16;93252.34;;;16.37;48.29
20628;BME280;10473;42.734;24.258;2022-11-13T07:07:03;93248.81;;;15.93;48.34
20628;BME280;10473;42.734;24.258;2022-11-13T07:09:50;93248.34;;;15.55;50.30
20628;BME280;10473;42.734;24.258;2022-11-13T07:12:37;93250.56;;;15.79;50.08
20628;BME280;10473;42.734;24.258;2022-11-13T07:15:24;93245.28;;;15.86;50.24
20628;BME280;10473;42.734;24.258;2022-11-13T07:18:11;93222.53;;;15.99;48.63
20628;BME280;10473;42.734;24.258;2022-11-13T07:21:01;93244.91;;;15.84;48.64
20628;BME280;10473;42.734;24.258;2022-11-13T07:23:48;93234.34;;;15.65;50.28
20628;BME280;10473;42.734;24.258;2022-11-13T07:26:36;93232.97;;;15.78;49.90
20628;BME280;10473;42.734;24.258;2022-11-13T07:29:23;93237.75;;;15.95;49.73
20628;BME280;10473;42.734;24.258;2022-11-13T07:32:09;93233.16;;;15.95;49.84
20628;BME280;10473;42.734;24.258;2022-11-13T07:34:56;93242.94;;;15.81;50.14
20628;BME280;10473;42.734;24.258;2022-11-13T07:37:42;93246.09;;;16.23;49.06
20628;BME280;10473;42.734;24.258;2022-11-13T07:40:29;93243.56;;;16.00;49.20
20628;BME280;10473;42.734;24.258;2022-11-13T07:43:17;93239.16;;;16.18;49.06
20628;BME280;10473;42.734;24.258;2022-11-13T07:46:03;93245.66;;;16.54;48.93
20628;BME280;10473;42.734;24.258;2022-11-13T07:48:50;93235.63;;;16.11;48.90
20628;BME280;10473;42.734;24.258;2022-11-13T07:51:37;93210.91;;;16.21;49.27
20628;BME280;10473;42.734;24.258;2022-11-13T07:54:23;93245.91;;;16.42;48.35
20628;BME280;10473;42.734;24.258;2022-11-13T07:57:09;93224.81;;;16.37;48.04
20628;BME280;10473;42.734;24.258;2022-11-13T07:59:57;93241.50;;;16.60;47.98
20628;BME280;10473;42.734;24.258;2022-11-13T08:02:44;93220.94;;;16.71;47.63
20628;BME280;10473;42.734;24.258;2022-11-13T08:05:32;93238.34;;;16.47;47.84
20628;BME280;10473;42.734;24.258;2022-11-13T08:08:18;93244.56;;;17.09;47.06
20628;BME280;10473;42.734;24.258;2022-11-13T08:11:05;93237.09;;;17.32;46.71
20628;BME280;10473;42.734;24.258;2022-11-13T08:13:52;93238.38;;;16.94;47.69
20628;BME280;10473;42.734;24.258;2022-11-13T08:16:40;93234.53;;;17.46;46.17
20628;BME280;10473;42.734;24.258;2022-11-13T08:19:27;93231.81;;;17.42;46.96
20628;BME280;10473;42.734;24.258;2022-11-13T08:22:13;93233.25;;;18.04;44.94
20628;BME280;10473;42.734;24.258;2022-11-13T08:24:59;93230.00;;;17.64;45.64
20628;BME280;10473;42.734;24.258;2022-11-13T08:27:47;93227.97;;;17.40;45.98
20628;BME280;10473;42.734;24.258;2022-11-13T08:30:33;93230.81;;;17.10;46.35
20628;BME280;10473;42.734;24.258;2022-11-13T08:33:21;93234.78;;;17.34;45.94
20628;BME280;10473;42.734;24.258;2022-11-13T08:36:08;93243.84;;;17.12;46.49
20628;BME280;10473;42.734;24.258;2022-11-13T08:38:56;93236.91;;;17.07;46.09
20628;BME280;10473;42.734;24.258;2022-11-13T08:41:42;93242.91;;;16.87;45.87
20628;BME280;10473;42.734;24.258;2022-11-13T08:44:29;93242.94;;;16.94;45.90
20628;BME280;10473;42.734;24.258;2022-11-13T08:47:15;93239.50;;;16.50;47.36
20628;BME280;10473;42.734;24.258;2022-11-13T08:50:04;93243.94;;;16.75;47.27
20628;BME280;10473;42.734;24.258;2022-11-13T08:52:53;93237.63;;;17.01;46.83
20628;BME280;10473;42.734;24.258;2022-11-13T08:55:47;93239.13;;;16.98;46.86
20628;BME280;10473;42.734;24.258;2022-11-13T08:58:33;93240.72;;;17.03;46.97
20628;BME280;10473;42.734;24.258;2022-11-13T09:01:20;93243.41;;;17.64;47.07
20628;BME280;10473;42.734;24.258;2022-11-13T09:04:07;93229.69;;;17.79;45.49
20628;BME280;10473;42.734;24.258;2022-11-13T09:06:55;93236.09;;;18.92;43.36
20628;BME280;10473;42.734;24.258;2022-11-13T09:09:42;93216.88;;;18.41;43.85
20628;BME280;10473;42.734;24.258;2022-11-13T09:12:29;93215.56;;;17.86;44.83
20628;BME280;10473;42.734;24.258;2022-11-13T09:15:15;93211.00;;;17.97;45.32
20628;BME280;10473;42.734;24.258;2022-11-13T09:18:02;93207.47;;;17.79;45.34
20628;BME280;10473;42.734;24.258;2022-11-13T09:20:48;93208.56;;;16.99;46.78
20628;BME280;10473;42.734;24.258;2022-11-13T09:23:36;93205.63;;;17.97;45.26
20628;BME280;10473;42.734;24.258;2022-11-13T09:26:22;93209.22;;;18.39;44.16
20628;BME280;10473;42.734;24.258;2022-11-13T09:29:08;93209.50;;;18.13;43.81
20628;BME280;10473;42.734;24.258;2022-11-13T09:31:54;93193.88;;;18.40;43.85
20628;BME280;10473;42.734;24.258;2022-11-13T09:34:41;93197.34;;;18.72;43.04
20628;BME280;10473;42.734;24.258;2022-11-13T09:37:27;93199.28;;;19.24;42.50
20628;BME280;10473;42.734;24.258;2022-11-13T09:40:23;93195.41;;;19.11;41.66
20628;BME280;10473;42.734;24.258;2022-11-13T09:43:24;93185.50;;;20.18;40.84
20628;BME280;10473;42.734;24.258;2022-11-13T09:46:18;93189.75;;;21.25;38.28
20628;BME280;10473;42.734;24.258;2022-11-13T09:49:13;93186.13;;;20.98;37.62
20628;BME280;10473;42.734;24.258;2022-11-13T09:52:03;93174.63;;;21.34;37.17
20628;BME280;10473;42.734;24.258;2022-11-13T09:54:50;93165.69;;;22.08;36.00
20628;BME280;10473;42.734;24.258;2022-11-13T09:57:43;93170.31;;;23.13;33.91
20628;BME280;10473;42.734;24.258;2022-11-13T10:00:33;93159.75;;;23.84;33.10
20628;BME280;10473;42.734;24.258;2022-11-13T10:03:30;93160.53;;;24.75;31.44
20628;BME280;10473;42.734;24.258;2022-11-13T10:06:25;93157.47;;;25.54;30.64
20628;BME280;10473;42.734;24.258;2022-11-13T10:09:18;93145.78;;;24.76;30.80
20628;BME280;10473;42.734;24.258;2022-11-13T10:12:09;93142.66;;;24.26;30.73
20628;BME280;10473;42.734;24.258;2022-11-13T10:15:04;93129.25;;;25.03;30.47
20628;BME280;10473;42.734;24.258;2022-11-13T10:17:57;93142.47;;;25.17;30.00
20628;BME280;10473;42.734;24.258;2022-11-13T10:20:47;93144.69;;;26.49;29.65
20628;BME280;10473;42.734;24.258;2022-11-13T10:23:49;93133.31;;;26.91;28.06
20628;BME280;10473;42.734;24.258;2022-11-13T10:26:46;93142.09;;;27.54;26.50
20628;BME280;10473;42.734;24.258;2022-11-13T10:29:33;93137.03;;;27.44;27.54
20628;BME280;10473;42.734;24.258;2022-11-13T10:32:23;93132.00;;;27.76;26.87
20628;BME280;10473;42.734;24.258;2022-11-13T10:35:41;93127.25;;;26.09;28.65
20628;BME280;10473;42.734;24.258;2022-11-13T10:38:34;93122.38;;;26.29;29.49
20628;BME280;10473;42.734;24.258;2022-11-13T10:41:27;93114.69;;;26.52;29.51
20628;BME280;10473;42.734;24.258;2022-11-13T10:44:31;93119.50;;;26.07;29.60
20628;BME280;10473;42.734;24.258;2022-11-13T10:47:22;93119.84;;;25.68;29.53
20628;BME280;10473;42.734;24.258;2022-11-13T10:50:10;93109.41;;;27.08;28.91
20628;BME280;10473;42.734;24.258;2022-11-13T10:52:59;93109.31;;;27.79;27.02
20628;BME280;10473;42.734;24.258;2022-11-13T10:55:49;93108.66;;;28.18;26.63
20628;BME280;10473;42.734;24.258;2022-11-13T10:58:38;93101.97;;;29.11;25.81
20628;BME280;10473;42.734;24.258;2022-11-13T11:01:24;93093.38;;;30.11;25.19
20628;BME280;10473;42.734;24.258;2022-11-13T11:04:19;93083.84;;;30.48;24.42
20628;BME280;10473;42.734;24.258;2022-11-13T11:07:16;93095.47;;;30.76;24.19
20628;BME280;10473;42.734;24.258;2022-11-13T11:10:13;93080.59;;;32.38;22.79
20628;BME280;10473;42.734;24.258;2022-11-13T11:13:20;93090.09;;;34.46;21.22
20628;BME280;10473;42.734;24.258;2022-11-13T11:16:10;93085.88;;;33.99;20.69
20628;BME280;10473;42.734;24.258;2022-11-13T11:19:01;93081.34;;;35.46;20.75
20628;BME280;10473;42.734;24.258;2022-11-13T11:21:51;93081.84;;;34.46;20.29
20628;BME280;10473;42.734;24.258;2022-11-13T11:24:42;93068.94;;;33.26;21.78
20628;BME280;10473;42.734;24.258;2022-11-13T11:27:34;93059.84;;;32.66;22.31
20628;BME280;10473;42.734;24.258;2022-11-13T11:30:24;93069.75;;;32.20;22.95
20628;BME280;10473;42.734;24.258;2022-11-13T11:33:14;93063.09;;;32.35;22.69
20628;BME280;10473;42.734;24.258;2022-11-13T11:36:14;93069.97;;;32.45;23.32
20628;BME280;10473;42.734;24.258;2022-11-13T11:39:14;93067.66;;;31.86;24.04
20628;BME280;10473;42.734;24.258;2022-11-13T11:42:20;93062.53;;;31.17;25.37
20628;BME280;10473;42.734;24.258;2022-11-13T11:45:13;93058.69;;;30.26;26.15
20628;BME280;10473;42.734;24.258;2022-11-13T11:48:01;93051.31;;;29.91;26.67
20628;BME280;10473;42.734;24.258;2022-11-13T11:50:54;93046.34;;;29.62;26.31
20628;BME280;10473;42.734;24.258;2022-11-13T11:53:50;93057.84;;;29.75;26.69
20628;BME280;10473;42.734;24.258;2022-11-13T11:56:45;93035.84;;;29.52;26.42
20628;BME280;10473;42.734;24.258;2022-11-13T11:59:45;93047.44;;;30.24;25.57
20628;BME280;10473;42.734;24.258;2022-11-13T12:03:05;93036.22;;;28.08;28.28
20628;BME280;10473;42.734;24.258;2022-11-13T12:06:05;93027.00;;;26.73;30.22
20628;BME280;10473;42.734;24.258;2022-11-13T12:09:00;93039.16;;;26.94;29.91
20628;BME280;10473;42.734;24.258;2022-11-13T12:11:55;93041.06;;;26.09;30.33
20628;BME280;10473;42.734;24.258;2022-11-13T12:14:51;93033.25;;;24.84;32.41
20628;BME280;10473;42.734;24.258;2022-11-13T12:17:52;93037.19;;;24.67;32.49
20628;BME280;10473;42.734;24.258;2022-11-13T12:20:45;93024.22;;;23.17;34.55
20628;BME280;10473;42.734;24.258;2022-11-13T12:23:42;93025.72;;;22.56;36.06
20628;BME280;10473;42.734;24.258;2022-11-13T12:26:36;93032.44;;;22.21;36.63
20628;BME280;10473;42.734;24.258;2022-11-13T12:29:39;93029.38;;;22.42;36.55
20628;BME280;10473;42.734;24.258;2022-11-13T12:32:46;93038.97;;;21.97;37.39
20628;BME280;10473;42.734;24.258;2022-11-13T12:35:38;93033.44;;;21.81;37.74
20628;BME280;10473;42.734;24.258;2022-11-13T12:38:35;93033.56;;;21.71;37.72
20628;BME280;10473;42.734;24.258;2022-11-13T12:41:36;93023.53;;;21.08;38.72
20628;BME280;10473;42.734;24.258;2022-11-13T12:44:27;93020.28;;;20.49;39.92
20628;BME280;10473;42.734;24.258;2022-11-13T12:47:15;93030.09;;;20.26;40.52
20628;BME280;10473;42.734;24.258;2022-11-13T12:50:04;93031.03;;;20.02;41.39
20628;BME280;10473;42.734;24.258;2022-11-13T12:52:59;93034.91;;;19.32;43.02
20628;BME280;10473;42.734;24.258;2022-11-13T12:55:54;93040.31;;;19.15;43.11
20628;BME280;10473;42.734;24.258;2022-11-13T12:58:55;93039.31;;;18.63;44.67
20628;BME280;10473;42.734;24.258;2022-11-13T13:01:44;93038.97;;;18.51;45.21
20628;BME280;10473;42.734;24.258;2022-11-13T13:04:47;93035.13;;;18.59;45.31
20628;BME280;10473;42.734;24.258;2022-11-13T13:11:14;93039.34;;;18.04;45.98
20628;BME280;10473;42.734;24.258;2022-11-13T13:14:24;93043.91;;;17.79;47.66
20628;BME280;10473;42.734;24.258;2022-11-13T13:17:19;93033.97;;;17.76;46.93
20628;BME280;10473;42.734;24.258;2022-11-13T13:20:30;93038.38;;;17.16;48.45
20628;BME280;10473;42.734;24.258;2022-11-13T13:23:28;93020.72;;;17.01;48.54
20628;BME280;10473;42.734;24.258;2022-11-13T13:26:22;93028.44;;;17.20;48.08
20628;BME280;10473;42.734;24.258;2022-11-13T13:29:16;93035.53;;;16.81;49.19
20628;BME280;10473;42.734;24.258;2022-11-13T13:32:13;93045.00;;;16.57;50.37
20628;BME280;10473;42.734;24.258;2022-11-13T13:35:06;93016.63;;;15.95;50.70
20628;BME280;10473;42.734;24.258;2022-11-13T13:38:02;93031.97;;;16.02;51.72
20628;BME280;10473;42.734;24.258;2022-11-13T13:41:00;93031.69;;;15.70;52.30
20628;BME280;10473;42.734;24.258;2022-11-13T13:44:08;93024.00;;;15.29;53.55
20628;BME280;10473;42.734;24.258;2022-11-13T13:46:58;93023.66;;;15.30;53.69
20628;BME280;10473;42.734;24.258;2022-11-13T13:49:46;93022.75;;;15.16;54.21
20628;BME280;10473;42.734;24.258;2022-11-13T13:52:34;93026.22;;;15.20;53.66
20628;BME280;10473;42.734;24.258;2022-11-13T13:55:27;93025.16;;;15.28;54.48
20628;BME280;10473;42.734;24.258;2022-11-13T13:58:23;93024.06;;;15.69;53.67
20628;BME280;10473;42.734;24.258;2022-11-13T14:01:13;93019.97;;;16.32;51.85
20628;BME280;10473;42.734;24.258;2022-11-13T14:04:04;93023.00;;;16.95;50.30
20628;BME280;10473;42.734;24.258;2022-11-13T14:06:54;93029.66;;;17.40;48.95
20628;BME280;10473;42.734;24.258;2022-11-13T14:09:40;93027.09;;;18.13;46.63
20628;BME280;10473;42.734;24.258;2022-11-13T14:12:29;93031.25;;;18.74;45.96
20628;BME280;10473;42.734;24.258;2022-11-13T14:15:21;93026.25;;;18.76;45.20
20628;BME280;10473;42.734;24.258;2022-11-13T14:18:11;93022.84;;;18.44;46.01
20628;BME280;10473;42.734;24.258;2022-11-13T14:20:59;93027.44;;;18.50;46.05
20628;BME280;10473;42.734;24.258;2022-11-13T14:23:48;93025.56;;;17.98;46.89
20628;BME280;10473;42.734;24.258;2022-11-13T14:26:35;93035.88;;;18.14;46.44
20628;BME280;10473;42.734;24.258;2022-11-13T14:29:31;93014.41;;;17.82;47.01
20628;BME280;10473;42.734;24.258;2022-11-13T14:32:22;93023.22;;;17.58;47.34
20628;BME280;10473;42.734;24.258;2022-11-13T14:35:17;93021.13;;;16.99;49.06
20628;BME280;10473;42.734;24.258;2022-11-13T14:38:04;93008.78;;;16.81;49.35
20628;BME280;10473;42.734;24.258;2022-11-13T14:40:51;92996.50;;;16.69;49.79
20628;BME280;10473;42.734;24.258;2022-11-13T14:43:37;93020.84;;;16.47;50.22
20628;BME280;10473;42.734;24.258;2022-11-13T14:46:28;93008.03;;;15.69;52.17
20628;BME280;10473;42.734;24.258;2022-11-13T14:49:25;93019.78;;;15.61;52.12
20628;BME280;10473;42.734;24.258;2022-11-13T14:52:20;93027.22;;;15.05;54.08
20628;BME280;10473;42.734;24.258;2022-11-13T14:55:20;93002.94;;;14.25;56.09